Anzahl Datensätze: 142
min. Temperatur: 3.0 °C
max. Temperatur: 10.2 °C
max. Windgeschwindigkeit: 15.1 km/h
Niederschlagsumme: 0.0 mm
| Datum |
Zeit |
Temp °C |
Feuchte % |
Taupunkt °C |
Luftdruck hPa |
Wind km/h |
Windrichtung |
Strahlung w/m² |
Niederschlag mm |
|---|---|---|---|---|---|---|---|---|---|
| 07.11.2025 | 00:08 | 4.8 | 86 | 2.7 | 1011.0 | 1.1 | NNO | 0 | 0.0 |
| 07.11.2025 | 00:18 | 4.7 | 86 | 2.6 | 1011.2 | 4.3 | NNO | 0 | 0.0 |
| 07.11.2025 | 00:28 | 5.5 | 84 | 3.0 | 1010.9 | 1.1 | OSO | 0 | 0.0 |
| 07.11.2025 | 00:38 | 5.1 | 84 | 2.6 | 1010.9 | 1.4 | N | 0 | 0.0 |
| 07.11.2025 | 00:48 | 5.1 | 84 | 2.6 | 1010.8 | 4.3 | N | 0 | 0.0 |
| 07.11.2025 | 00:58 | 5.3 | 82 | 2.4 | 1011.0 | 1.8 | NNO | 0 | 0.0 |
| 07.11.2025 | 01:08 | 5.3 | 84 | 2.8 | 1010.8 | 1.1 | N | 0 | 0.0 |
| 07.11.2025 | 01:18 | 4.7 | 85 | 2.5 | 1010.7 | 4.3 | NO | 0 | 0.0 |
| 07.11.2025 | 01:28 | 5.1 | 82 | 2.3 | 1010.6 | 4.0 | N | 0 | 0.0 |
| 07.11.2025 | 01:38 | 5.3 | 82 | 2.5 | 1010.7 | 0.7 | N | 0 | 0.0 |
| 07.11.2025 | 01:48 | 5.3 | 82 | 2.4 | 1010.3 | 1.8 | N | 0 | 0.0 |
| 07.11.2025 | 01:58 | 4.7 | 84 | 2.3 | 1010.8 | 1.8 | NO | 0 | 0.0 |
| 07.11.2025 | 02:08 | 5.3 | 83 | 2.6 | 1010.5 | 0.7 | N | 0 | 0.0 |
| 07.11.2025 | 02:18 | 5.0 | 82 | 2.2 | 1010.6 | 2.5 | NO | 0 | 0.0 |
| 07.11.2025 | 02:28 | 4.3 | 85 | 1.9 | 1010.9 | 0.7 | N | 0 | 0.0 |
| 07.11.2025 | 02:38 | 4.1 | 85 | 1.9 | 1011.0 | 4.0 | NNO | 0 | 0.0 |
| 07.11.2025 | 02:48 | 4.6 | 84 | 2.1 | 1011.0 | 4.3 | SSO | 0 | 0.0 |
| 07.11.2025 | 02:58 | 4.0 | 87 | 2.0 | 1011.2 | 0.7 | N | 0 | 0.0 |
| 07.11.2025 | 03:08 | 3.8 | 87 | 1.8 | 1011.0 | 0.7 | N | 0 | 0.0 |
| 07.11.2025 | 03:18 | 4.1 | 85 | 1.8 | 1011.1 | 1.1 | NNO | 0 | 0.0 |
| 07.11.2025 | 03:28 | 4.4 | 86 | 2.2 | 1011.1 | 0.7 | N | 0 | 0.0 |
| 07.11.2025 | 03:38 | 3.9 | 86 | 1.8 | 1010.9 | 2.9 | NNO | 0 | 0.0 |
| 07.11.2025 | 03:48 | 4.3 | 85 | 1.9 | 1010.7 | 1.8 | N | 0 | 0.0 |
| 07.11.2025 | 03:58 | 4.1 | 85 | 1.9 | 1010.9 | 4.0 | N | 0 | 0.0 |
| 07.11.2025 | 04:08 | 4.4 | 84 | 2.0 | 1010.9 | 4.0 | NNO | 0 | 0.0 |
| 07.11.2025 | 04:18 | 4.1 | 85 | 1.9 | 1010.9 | 2.2 | NO | 0 | 0.0 |
| 07.11.2025 | 04:28 | 4.2 | 84 | 1.8 | 1010.9 | 1.8 | NO | 0 | 0.0 |
| 07.11.2025 | 04:38 | 4.5 | 83 | 1.9 | 1010.8 | 1.8 | SSW | 0 | 0.0 |
| 07.11.2025 | 04:48 | 4.3 | 85 | 2.0 | 1010.8 | 2.2 | NO | 0 | 0.0 |
| 07.11.2025 | 04:58 | 4.1 | 87 | 2.1 | 1011.0 | 3.6 | N | 0 | 0.0 |
| 07.11.2025 | 05:08 | 4.1 | 87 | 2.1 | 1010.8 | 4.7 | S | 0 | 0.0 |
| 07.11.2025 | 05:19 | 4.1 | 87 | 2.1 | 1010.8 | 4.7 | N | 0 | 0.0 |
| 07.11.2025 | 05:29 | 4.5 | 85 | 2.1 | 1011.0 | 1.8 | N | 0 | 0.0 |
| 07.11.2025 | 05:39 | 4.4 | 85 | 2.1 | 1010.7 | 4.3 | S | 0 | 0.0 |
| 07.11.2025 | 05:49 | 3.8 | 86 | 1.6 | 1010.9 | 1.1 | NW | 0 | 0.0 |
| 07.11.2025 | 05:59 | 3.8 | 86 | 1.7 | 1010.8 | 2.5 | N | 0 | 0.0 |
| 07.11.2025 | 06:09 | 4.0 | 86 | 1.8 | 1010.8 | 5.0 | NNO | 0 | 0.0 |
| 07.11.2025 | 06:19 | 4.5 | 85 | 2.2 | 1010.7 | 2.5 | SSO | 0 | 0.0 |
| 07.11.2025 | 06:29 | 4.2 | 86 | 2.1 | 1010.9 | 2.2 | NO | 0 | 0.0 |
| 07.11.2025 | 06:39 | 4.7 | 83 | 2.1 | 1010.8 | 0.4 | N | 0 | 0.0 |
| 07.11.2025 | 06:49 | 4.7 | 83 | 2.0 | 1010.9 | 1.8 | N | 0 | 0.0 |
| 07.11.2025 | 06:59 | 4.4 | 85 | 2.1 | 1011.0 | 2.9 | S | 0 | 0.0 |
| 07.11.2025 | 07:09 | 3.9 | 86 | 1.8 | 1011.2 | 3.2 | N | 3 | 0.0 |
| 07.11.2025 | 07:19 | 4.2 | 85 | 1.9 | 1011.5 | 2.2 | NO | 3 | 0.0 |
| 07.11.2025 | 07:29 | 4.6 | 83 | 2.0 | 1011.3 | 1.8 | ONO | 9 | 0.0 |
| 07.11.2025 | 07:39 | 4.3 | 83 | 1.7 | 1011.4 | 0.7 | N | 16 | 0.0 |
| 07.11.2025 | 07:49 | 4.3 | 85 | 2.0 | 1011.5 | 1.8 | O | 20 | 0.0 |
| 07.11.2025 | 07:59 | 4.3 | 86 | 2.2 | 1011.7 | 1.4 | N | 25 | 0.0 |
| 07.11.2025 | 08:09 | 4.3 | 87 | 2.3 | 1011.7 | 1.4 | NO | 34 | 0.0 |
| 07.11.2025 | 08:19 | 4.5 | 85 | 2.2 | 1011.6 | 0.4 | N | 43 | 0.0 |
| 07.11.2025 | 08:29 | 4.2 | 86 | 2.2 | 1011.8 | 1.8 | SW | 49 | 0.0 |
| 07.11.2025 | 08:39 | 4.3 | 87 | 2.3 | 1011.7 | 7.9 | SO | 45 | 0.0 |
| 07.11.2025 | 08:49 | 4.2 | 86 | 2.0 | 1011.7 | 1.4 | S | 58 | 0.0 |
| 07.11.2025 | 08:59 | 4.4 | 86 | 2.3 | 1011.5 | 2.5 | N | 80 | 0.0 |
| 07.11.2025 | 09:09 | 5.2 | 85 | 2.8 | 1011.3 | 4.7 | S | 89 | 0.0 |
| 07.11.2025 | 09:19 | 5.1 | 84 | 2.6 | 1011.4 | 2.9 | S | 157 | 0.0 |
| 07.11.2025 | 09:29 | 5.6 | 81 | 2.6 | 1011.1 | 1.1 | NNW | 105 | 0.0 |
| 07.11.2025 | 09:39 | 6.3 | 76 | 2.4 | 1011.0 | 1.4 | N | 153 | 0.0 |
| 07.11.2025 | 09:49 | 7.4 | 74 | 3.1 | 1010.8 | 1.1 | S | 183 | 0.0 |
| 07.11.2025 | 09:59 | 7.3 | 73 | 2.7 | 1010.7 | 1.8 | SSW | 167 | 0.0 |
| 07.11.2025 | 10:09 | 7.5 | 72 | 2.8 | 1010.8 | 1.8 | WSW | 207 | 0.0 |
| 07.11.2025 | 10:20 | 7.1 | 74 | 2.8 | 1010.9 | 2.5 | SSW | 179 | 0.0 |
| 07.11.2025 | 10:30 | 7.6 | 73 | 3.1 | 1010.8 | 2.2 | WSW | 177 | 0.0 |
| 07.11.2025 | 10:40 | 8.2 | 73 | 3.7 | 1010.8 | 2.9 | WSW | 240 | 0.0 |
| 07.11.2025 | 10:50 | 8.1 | 74 | 3.6 | 1010.8 | 5.4 | S | 188 | 0.0 |
| 07.11.2025 | 11:00 | 8.5 | 72 | 3.8 | 1010.6 | 2.5 | SW | 265 | 0.0 |
| 07.11.2025 | 11:10 | 8.3 | 75 | 4.1 | 1010.6 | 1.4 | S | 323 | 0.0 |
| 07.11.2025 | 11:20 | 8.6 | 71 | 3.6 | 1010.4 | 6.5 | S | 333 | 0.0 |
| 07.11.2025 | 11:30 | 8.3 | 71 | 3.3 | 1010.5 | 2.5 | SSW | 317 | 0.0 |
| 07.11.2025 | 11:40 | 8.7 | 72 | 4.0 | 1010.4 | 4.7 | SSW | 318 | 0.0 |
| 07.11.2025 | 11:50 | 8.7 | 72 | 3.9 | 1010.4 | 3.2 | SSW | 279 | 0.0 |
| 07.11.2025 | 12:00 | 8.8 | 72 | 4.0 | 1010.4 | 4.7 | S | 207 | 0.0 |
| 07.11.2025 | 12:20 | 9.2 | 68 | 3.6 | 1010.0 | 4.0 | S | 219 | 0.0 |
| 07.11.2025 | 12:30 | 9.8 | 65 | 3.5 | 1009.7 | 2.2 | WSW | 224 | 0.0 |
| 07.11.2025 | 12:40 | 9.1 | 71 | 4.1 | 1009.7 | 7.2 | S | 256 | 0.0 |
| 07.11.2025 | 12:50 | 9.2 | 67 | 3.3 | 1009.6 | 1.4 | S | 197 | 0.0 |
| 07.11.2025 | 13:00 | 9.4 | 63 | 2.6 | 1009.7 | 5.0 | SSW | 267 | 0.0 |
| 07.11.2025 | 13:10 | 9.1 | 66 | 3.2 | 1009.8 | 4.3 | SSW | 191 | 0.0 |
| 07.11.2025 | 13:20 | 10.1 | 65 | 3.9 | 1009.6 | 4.3 | W | 199 | 0.0 |
| 07.11.2025 | 13:30 | 10.1 | 69 | 4.7 | 1009.5 | 2.9 | WSW | 157 | 0.0 |
| 07.11.2025 | 13:40 | 10.2 | 67 | 4.3 | 1009.4 | 2.2 | N | 127 | 0.0 |
| 07.11.2025 | 13:50 | 9.3 | 72 | 4.5 | 1009.5 | 4.3 | S | 137 | 0.0 |
| 07.11.2025 | 14:00 | 9.0 | 72 | 4.1 | 1009.7 | 4.7 | SSW | 126 | 0.0 |
| 07.11.2025 | 14:10 | 10.0 | 68 | 4.4 | 1009.3 | 4.3 | WSW | 116 | 0.0 |
| 07.11.2025 | 14:20 | 9.6 | 69 | 4.3 | 1009.3 | 2.9 | S | 87 | 0.0 |
| 07.11.2025 | 14:30 | 9.6 | 69 | 4.2 | 1009.4 | 1.4 | NNW | 73 | 0.0 |
| 07.11.2025 | 14:40 | 9.5 | 64 | 3.0 | 1009.4 | 2.5 | S | 72 | 0.0 |
| 07.11.2025 | 14:50 | 9.3 | 68 | 3.6 | 1009.6 | 1.1 | SSW | 82 | 0.0 |
| 07.11.2025 | 15:00 | 9.5 | 64 | 3.1 | 1009.5 | 2.2 | SSW | 77 | 0.0 |
| 07.11.2025 | 15:10 | 9.5 | 70 | 4.4 | 1009.6 | 1.4 | WSW | 96 | 0.0 |
| 07.11.2025 | 15:21 | 9.5 | 71 | 4.4 | 1009.6 | 1.8 | SSW | 52 | 0.0 |
| 07.11.2025 | 15:31 | 9.1 | 73 | 4.6 | 1009.6 | 4.0 | SSO | 50 | 0.0 |
| 07.11.2025 | 15:41 | 9.1 | 73 | 4.5 | 1009.6 | 2.9 | S | 58 | 0.0 |
| 07.11.2025 | 15:51 | 8.9 | 74 | 4.4 | 1009.7 | 2.2 | S | 66 | 0.0 |
| 07.11.2025 | 16:01 | 8.6 | 69 | 3.2 | 1009.8 | 2.9 | N | 40 | 0.0 |
| 07.11.2025 | 16:11 | 8.7 | 69 | 3.2 | 1009.9 | 0.4 | N | 27 | 0.0 |
| 07.11.2025 | 16:21 | 8.3 | 75 | 4.0 | 1009.9 | 1.4 | SSW | 21 | 0.0 |
| 07.11.2025 | 16:31 | 7.6 | 73 | 3.1 | 1010.1 | 1.8 | N | 17 | 0.0 |
| 07.11.2025 | 16:41 | 7.7 | 75 | 3.4 | 1010.3 | 0.4 | N | 12 | 0.0 |
| 07.11.2025 | 16:51 | 7.5 | 76 | 3.4 | 1010.4 | 0.7 | N | 7 | 0.0 |
| 07.11.2025 | 17:01 | 7.0 | 78 | 3.4 | 1010.4 | 2.2 | NNO | 3 | 0.0 |
| 07.11.2025 | 17:11 | 6.9 | 78 | 3.5 | 1010.6 | 0.4 | N | 0 | 0.0 |
| 07.11.2025 | 17:21 | 7.0 | 75 | 2.8 | 1010.7 | 4.0 | S | 0 | 0.0 |
| 07.11.2025 | 17:31 | 6.7 | 78 | 3.1 | 1010.9 | 2.9 | N | 0 | 0.0 |
| 07.11.2025 | 17:41 | 6.2 | 77 | 2.4 | 1011.0 | 1.1 | N | 0 | 0.0 |
| 07.11.2025 | 17:51 | 6.3 | 77 | 2.7 | 1011.2 | 2.5 | NO | 0 | 0.0 |
| 07.11.2025 | 18:01 | 6.0 | 76 | 2.0 | 1011.3 | 0.7 | N | 0 | 0.0 |
| 07.11.2025 | 18:11 | 5.9 | 79 | 2.5 | 1011.4 | 2.5 | NNO | 0 | 0.0 |
| 07.11.2025 | 18:21 | 5.5 | 79 | 2.3 | 1011.6 | 0.7 | NO | 0 | 0.0 |
| 07.11.2025 | 18:31 | 5.2 | 78 | 1.7 | 1011.8 | 2.9 | NNO | 0 | 0.0 |
| 07.11.2025 | 18:41 | 5.8 | 77 | 2.1 | 1011.7 | 4.3 | SSO | 0 | 0.0 |
| 07.11.2025 | 18:51 | 5.1 | 81 | 2.1 | 1011.9 | 1.8 | ONO | 0 | 0.0 |
| 07.11.2025 | 19:01 | 4.9 | 79 | 1.5 | 1012.2 | 1.8 | NNO | 0 | 0.0 |
| 07.11.2025 | 19:11 | 5.2 | 77 | 1.6 | 1012.3 | 1.8 | NO | 0 | 0.0 |
| 07.11.2025 | 19:21 | 5.2 | 79 | 1.8 | 1012.2 | 3.6 | NNO | 0 | 0.0 |
| 07.11.2025 | 19:31 | 4.7 | 81 | 1.6 | 1012.4 | 2.9 | NNO | 0 | 0.0 |
| 07.11.2025 | 19:41 | 4.9 | 79 | 1.5 | 1012.5 | 2.9 | NNO | 0 | 0.0 |
| 07.11.2025 | 19:51 | 4.5 | 79 | 1.1 | 1012.8 | 2.5 | NNO | 0 | 0.0 |
| 07.11.2025 | 20:01 | 4.6 | 77 | 0.9 | 1012.8 | 2.2 | NNO | 0 | 0.0 |
| 07.11.2025 | 20:11 | 5.0 | 76 | 1.1 | 1012.7 | 1.4 | NNO | 0 | 0.0 |
| 07.11.2025 | 20:22 | 4.6 | 77 | 0.9 | 1013.1 | 1.4 | NO | 0 | 0.0 |
| 07.11.2025 | 20:32 | 4.5 | 77 | 0.8 | 1012.9 | 1.8 | N | 0 | 0.0 |
| 07.11.2025 | 20:42 | 4.4 | 77 | 0.8 | 1012.9 | 2.9 | NNO | 0 | 0.0 |
| 07.11.2025 | 20:52 | 4.7 | 76 | 0.7 | 1013.1 | 1.1 | ONO | 0 | 0.0 |
| 07.11.2025 | 21:02 | 4.3 | 77 | 0.7 | 1013.2 | 1.8 | NO | 0 | 0.0 |
| 07.11.2025 | 21:12 | 4.6 | 77 | 0.8 | 1013.2 | 2.5 | S | 0 | 0.0 |
| 07.11.2025 | 21:22 | 4.0 | 80 | 0.9 | 1013.4 | 1.8 | N | 0 | 0.0 |
| 07.11.2025 | 21:32 | 4.2 | 77 | 0.6 | 1013.3 | 2.2 | NO | 0 | 0.0 |
| 07.11.2025 | 21:42 | 4.3 | 80 | 1.0 | 1013.3 | 1.4 | N | 0 | 0.0 |
| 07.11.2025 | 21:52 | 4.0 | 80 | 0.8 | 1013.4 | 1.1 | N | 0 | 0.0 |
| 07.11.2025 | 22:02 | 3.7 | 81 | 0.7 | 1013.5 | 2.5 | NNO | 0 | 0.0 |
| 07.11.2025 | 22:12 | 3.9 | 79 | 0.6 | 1013.4 | 1.4 | SO | 0 | 0.0 |
| 07.11.2025 | 22:22 | 3.6 | 81 | 0.6 | 1013.4 | 2.5 | N | 0 | 0.0 |
| 07.11.2025 | 22:32 | 3.2 | 82 | 0.4 | 1013.5 | 2.9 | NNO | 0 | 0.0 |
| 07.11.2025 | 22:42 | 3.6 | 80 | 0.4 | 1013.3 | 1.1 | NNO | 0 | 0.0 |
| 07.11.2025 | 22:52 | 3.5 | 80 | 0.5 | 1013.2 | 2.2 | NO | 0 | 0.0 |
| 07.11.2025 | 23:02 | 3.4 | 79 | 0.2 | 1013.3 | 1.4 | NO | 0 | 0.0 |
| 07.11.2025 | 23:12 | 3.4 | 79 | 0.2 | 1013.3 | 0.7 | N | 0 | 0.0 |
| 07.11.2025 | 23:22 | 3.3 | 83 | 0.6 | 1013.4 | 1.8 | NNO | 0 | 0.0 |
| 07.11.2025 | 23:32 | 3.0 | 82 | 0.3 | 1013.5 | 2.2 | NO | 0 | 0.0 |
| 07.11.2025 | 23:42 | 3.0 | 81 | 0.0 | 1013.4 | 1.8 | NNO | 0 | 0.0 |
| 07.11.2025 | 23:52 | 3.3 | 80 | 0.2 | 1013.4 | 0.7 | N | 0 | 0.0 |